Time;durP1;ratioP1;P1;durP2;ratioP2;P2;SDS_P1;SDS_P2;PMS_P1;PMS_P2;Temp;Humidity;BMP_temperature;BMP_pressure;BME280_temperature;BME280_humidity;BME280_pressure;Samples;Min_cycle;Max_cycle;Signal;HPM_P1;HPM_P2
2023/08/14 00:01:12;;;;;;;9.95;4.75;;;;;;;;;;5023158;28;20164;-67
2023/08/14 00:03:38;;;;;;;11.10;5.43;;;;;;;;;;5026215;28;20045;-67
2023/08/14 00:06:05;;;;;;;9.32;5.05;;;;;;;;;;5010413;28;20064;-68
2023/08/14 00:08:31;;;;;;;10.95;5.15;;;;;;;;;;5020117;28;20548;-66
2023/08/14 00:10:58;;;;;;;9.95;4.38;;;;;;;;;;5008968;28;20680;-66
2023/08/14 00:13:24;;;;;;;10.30;5.40;;;;;;;;;;5009627;28;20261;-67
2023/08/14 00:15:51;;;;;;;9.18;5.55;;;;;;;;;;5009094;28;20078;-66
2023/08/14 00:18:17;;;;;;;7.95;4.75;;;;;;;;;;5009002;28;20064;-67
2023/08/14 00:20:44;;;;;;;11.85;5.20;;;;;;;;;;5008776;28;20505;-66
2023/08/14 00:23:10;;;;;;;8.35;4.82;;;;;;;;;;5007308;28;20042;-66
2023/08/14 00:25:37;;;;;;;9.18;5.22;;;;;;;;;;5009048;28;20046;-66
2023/08/14 00:28:04;;;;;;;7.97;4.72;;;;;;;;;;5009340;28;20049;-67
2023/08/14 00:30:30;;;;;;;7.72;5.15;;;;;;;;;;5008935;28;20125;-66
2023/08/14 00:32:57;;;;;;;7.57;4.50;;;;;;;;;;5008839;28;20099;-67
2023/08/14 00:35:23;;;;;;;8.38;4.97;;;;;;;;;;5009107;28;20473;-66
2023/08/14 00:37:49;;;;;;;7.07;4.50;;;;;;;;;;5008970;28;20077;-67
2023/08/14 00:40:16;;;;;;;11.13;5.38;;;;;;;;;;5008931;28;20054;-66
2023/08/14 00:42:45;;;;;;;12.55;6.18;;;;;;;;;;5008638;28;20151;-67
2023/08/14 00:45:11;;;;;;;11.63;5.95;;;;;;;;;;5007223;28;20049;-66
2023/08/14 00:47:39;;;;;;;9.25;5.57;;;;;;;;;;5008579;28;20472;-66
2023/08/14 00:50:06;;;;;;;11.85;5.60;;;;;;;;;;5008690;28;20490;-67
2023/08/14 00:52:34;;;;;;;14.57;5.38;;;;;;;;;;5009238;28;20052;-68
2023/08/14 00:55:07;;;;;;;11.45;5.45;;;;;;;;;;5008322;28;20133;-66
2023/08/14 00:57:34;;;;;;;13.20;5.38;;;;;;;;;;5013424;28;20103;-66
2023/08/14 01:00:03;;;;;;;8.40;5.78;;;;;;;;;;5028322;28;20092;-67
2023/08/14 01:02:30;;;;;;;14.05;5.80;;;;;;;;;;5026997;28;20565;-66
2023/08/14 01:04:56;;;;;;;19.25;5.70;;;;;;;;;;5028374;28;20077;-66
2023/08/14 01:07:24;;;;;;;14.05;5.68;;;;;;;;;;5028394;28;20136;-67
2023/08/14 01:09:51;;;;;;;15.35;6.32;;;;;;;;;;5028083;28;20107;-66
2023/08/14 01:12:23;;;;;;;7.47;5.30;;;;;;;;;;5028257;28;20148;-67
2023/08/14 01:14:52;;;;;;;8.45;5.38;;;;;;;;;;5028047;28;20056;-67
2023/08/14 01:17:19;;;;;;;17.73;5.85;;;;;;;;;;5028126;28;20151;-66
2023/08/14 01:19:48;;;;;;;15.60;5.03;;;;;;;;;;5028052;28;20050;-67
2023/08/14 01:22:20;;;;;;;14.27;5.07;;;;;;;;;;5028532;28;20053;-66
2023/08/14 01:25:13;;;;;;;9.25;4.97;;;;;;;;;;5028037;28;20052;-67
2023/08/14 01:27:39;;;;;;;7.55;5.05;;;;;;;;;;5024906;28;20141;-66
2023/08/14 01:30:07;;;;;;;10.32;5.18;;;;;;;;;;5026855;28;20056;-67
2023/08/14 01:32:33;;;;;;;8.45;5.50;;;;;;;;;;5027844;28;20127;-67
2023/08/14 01:35:00;;;;;;;16.02;6.38;;;;;;;;;;5028105;28;20083;-65
2023/08/14 01:37:40;;;;;;;6.97;4.60;;;;;;;;;;5026728;28;20108;-65
2023/08/14 01:40:17;;;;;;;10.52;4.38;;;;;;;;;;5028491;28;20049;-66
2023/08/14 01:42:46;;;;;;;8.90;4.70;;;;;;;;;;5028106;28;20054;-66
2023/08/14 01:45:16;;;;;;;8.75;4.47;;;;;;;;;;5028328;28;20053;-67
2023/08/14 01:47:44;;;;;;;12.82;4.38;;;;;;;;;;5027610;28;20112;-65
2023/08/14 01:50:12;;;;;;;12.57;5.43;;;;;;;;;;5028104;28;20061;-67
2023/08/14 01:52:39;;;;;;;10.70;4.85;;;;;;;;;;5028053;28;20110;-66
2023/08/14 01:55:05;;;;;;;10.85;4.15;;;;;;;;;;5027708;28;20084;-67
2023/08/14 01:57:33;;;;;;;7.53;4.15;;;;;;;;;;5030684;28;20120;-66
2023/08/14 01:59:59;;;;;;;18.80;4.07;;;;;;;;;;5031162;28;20084;-66
2023/08/14 02:02:25;;;;;;;7.60;4.05;;;;;;;;;;5031220;28;20057;-67
2023/08/14 02:04:52;;;;;;;6.82;3.33;;;;;;;;;;5031206;28;20053;-67
2023/08/14 02:07:19;;;;;;;6.75;4.75;;;;;;;;;;5031593;28;20052;-66
2023/08/14 02:09:46;;;;;;;6.57;4.55;;;;;;;;;;5031068;28;20084;-66
2023/08/14 02:12:12;;;;;;;8.70;4.90;;;;;;;;;;5031040;28;20053;-68
2023/08/14 02:14:39;;;;;;;7.55;5.63;;;;;;;;;;5030744;28;20052;-66
2023/08/14 02:17:05;;;;;;;12.77;5.30;;;;;;;;;;5030532;28;20111;-67
2023/08/14 02:19:31;;;;;;;7.53;4.40;;;;;;;;;;5030377;28;20045;-66
2023/08/14 02:21:58;;;;;;;6.22;4.07;;;;;;;;;;5030372;28;20089;-68
2023/08/14 02:24:24;;;;;;;8.45;5.00;;;;;;;;;;5030755;28;20082;-67
2023/08/14 02:26:51;;;;;;;8.77;5.28;;;;;;;;;;5030747;28;20140;-67
2023/08/14 02:29:17;;;;;;;8.52;4.75;;;;;;;;;;5031320;28;20139;-66
2023/08/14 02:31:50;;;;;;;6.43;5.63;;;;;;;;;;5030615;28;20096;-67
2023/08/14 02:34:35;;;;;;;8.75;4.95;;;;;;;;;;5030838;28;20768;-66
2023/08/14 02:37:01;;;;;;;7.53;4.50;;;;;;;;;;5030213;28;20104;-65
2023/08/14 02:39:28;;;;;;;11.63;5.40;;;;;;;;;;5030624;28;20520;-66
2023/08/14 02:41:54;;;;;;;10.35;5.88;;;;;;;;;;5030286;28;20725;-66
2023/08/14 02:44:21;;;;;;;7.97;4.50;;;;;;;;;;5030601;28;20041;-68
2023/08/14 02:46:47;;;;;;;8.60;4.65;;;;;;;;;;5030201;28;20103;-66
2023/08/14 02:49:13;;;;;;;15.93;5.97;;;;;;;;;;5030376;28;20096;-67
2023/08/14 02:51:40;;;;;;;8.27;5.75;;;;;;;;;;5030704;28;20140;-66
2023/08/14 02:54:06;;;;;;;5.60;4.72;;;;;;;;;;5030618;28;20124;-66
2023/08/14 02:56:33;;;;;;;15.10;5.47;;;;;;;;;;5030503;28;20084;-69
2023/08/14 02:58:59;;;;;;;8.13;4.90;;;;;;;;;;5028788;28;20045;-66
2023/08/14 03:01:26;;;;;;;7.07;4.68;;;;;;;;;;5029975;28;20397;-66
2023/08/14 03:03:52;;;;;;;6.57;4.85;;;;;;;;;;5029934;28;20093;-66
2023/08/14 03:06:18;;;;;;;10.00;5.35;;;;;;;;;;5027439;28;20073;-67
2023/08/14 03:08:45;;;;;;;8.50;4.82;;;;;;;;;;5029424;28;20464;-67
2023/08/14 03:11:11;;;;;;;7.57;4.63;;;;;;;;;;5029583;28;20108;-67
2023/08/14 03:13:38;;;;;;;9.75;5.82;;;;;;;;;;5029870;28;20081;-65
2023/08/14 03:16:04;;;;;;;6.82;5.38;;;;;;;;;;5030111;28;20107;-66
2023/08/14 03:18:31;;;;;;;6.82;5.55;;;;;;;;;;5029627;28;20081;-66
2023/08/14 03:20:57;;;;;;;9.63;5.60;;;;;;;;;;5028396;28;20139;-67
2023/08/14 03:23:24;;;;;;;8.38;5.45;;;;;;;;;;5029435;28;20093;-69
2023/08/14 03:25:50;;;;;;;8.13;5.55;;;;;;;;;;5029280;28;20567;-65
2023/08/14 03:28:17;;;;;;;9.18;5.20;;;;;;;;;;5029696;28;20093;-67
2023/08/14 03:30:43;;;;;;;8.32;5.57;;;;;;;;;;5029387;28;20121;-67
2023/08/14 03:33:10;;;;;;;11.48;6.30;;;;;;;;;;5029762;28;20064;-65
2023/08/14 03:35:36;;;;;;;8.07;5.07;;;;;;;;;;5029653;28;20073;-65
2023/08/14 03:38:03;;;;;;;7.47;5.38;;;;;;;;;;5030170;28;20045;-67
2023/08/14 03:40:30;;;;;;;8.25;4.80;;;;;;;;;;5029657;28;20124;-66
2023/08/14 03:42:56;;;;;;;9.88;5.78;;;;;;;;;;5029579;28;20080;-66
2023/08/14 03:45:22;;;;;;;9.52;5.85;;;;;;;;;;5029261;28;20038;-65
2023/08/14 03:47:49;;;;;;;13.55;5.82;;;;;;;;;;5029397;28;20054;-66
2023/08/14 03:50:15;;;;;;;8.32;5.57;;;;;;;;;;5029311;28;20052;-67
2023/08/14 03:52:42;;;;;;;12.70;6.30;;;;;;;;;;5028753;28;20477;-66
2023/08/14 03:55:08;;;;;;;14.13;5.80;;;;;;;;;;5029211;28;20722;-66
2023/08/14 03:57:35;;;;;;;10.13;5.78;;;;;;;;;;5028836;28;20080;-67
2023/08/14 04:00:01;;;;;;;9.93;5.82;;;;;;;;;;5029640;28;20583;-65
2023/08/14 04:02:28;;;;;;;8.43;5.45;;;;;;;;;;5028892;28;20049;-67
2023/08/14 04:04:54;;;;;;;9.32;5.72;;;;;;;;;;5029125;28;20080;-67
2023/08/14 04:07:21;;;;;;;10.48;5.75;;;;;;;;;;5028566;28;20489;-67
2023/08/14 04:09:47;;;;;;;13.70;5.85;;;;;;;;;;5029245;28;20045;-66
2023/08/14 04:12:14;;;;;;;11.15;6.38;;;;;;;;;;5028491;28;20136;-66
2023/08/14 04:14:41;;;;;;;8.35;5.93;;;;;;;;;;5029036;28;20056;-67
2023/08/14 04:17:07;;;;;;;20.50;7.00;;;;;;;;;;5028833;28;20046;-65
2023/08/14 04:19:33;;;;;;;12.50;5.78;;;;;;;;;;5028480;28;20684;-66
2023/08/14 04:22:00;;;;;;;10.10;5.88;;;;;;;;;;5028703;28;20548;-66
2023/08/14 04:24:27;;;;;;;10.75;5.88;;;;;;;;;;5029149;28;20127;-67
2023/08/14 04:26:53;;;;;;;9.00;5.47;;;;;;;;;;5028629;28;20045;-66
2023/08/14 04:29:20;;;;;;;11.75;5.85;;;;;;;;;;5027558;28;20045;-66
2023/08/14 04:31:47;;;;;;;13.45;6.03;;;;;;;;;;5028614;28;20088;-66
2023/08/14 04:34:14;;;;;;;10.32;5.28;;;;;;;;;;5028754;28;20045;-66
2023/08/14 04:36:40;;;;;;;15.38;6.35;;;;;;;;;;5028513;28;20132;-66
2023/08/14 04:39:09;;;;;;;13.63;5.63;;;;;;;;;;5028782;28;20103;-68
2023/08/14 04:41:36;;;;;;;11.40;7.13;;;;;;;;;;5028641;28;20053;-68
2023/08/14 04:44:02;;;;;;;8.60;5.97;;;;;;;;;;5028760;28;20103;-66
2023/08/14 04:46:29;;;;;;;17.70;8.55;;;;;;;;;;5028865;28;20092;-66
2023/08/14 04:49:06;;;;;;;10.85;7.10;;;;;;;;;;5028318;28;20080;-66
2023/08/14 04:51:33;;;;;;;14.10;6.28;;;;;;;;;;5028329;28;20158;-67
2023/08/14 04:53:59;;;;;;;9.45;6.50;;;;;;;;;;5028199;28;20132;-65
2023/08/14 04:56:26;;;;;;;9.77;5.65;;;;;;;;;;5028402;28;20045;-66
2023/08/14 04:58:53;;;;;;;13.30;5.88;;;;;;;;;;5028408;28;20042;-66
2023/08/14 05:01:20;;;;;;;9.82;5.68;;;;;;;;;;5028139;28;20042;-67
2023/08/14 05:03:46;;;;;;;12.27;5.93;;;;;;;;;;5028372;28;20067;-66
2023/08/14 05:06:12;;;;;;;13.85;6.15;;;;;;;;;;5028621;28;20129;-66
2023/08/14 05:08:39;;;;;;;10.77;5.90;;;;;;;;;;5027417;28;20132;-66
2023/08/14 05:11:06;;;;;;;6.13;5.05;;;;;;;;;;5028080;28;20152;-67
2023/08/14 05:13:32;;;;;;;8.55;5.63;;;;;;;;;;5028580;28;20128;-66
2023/08/14 05:15:58;;;;;;;9.20;5.70;;;;;;;;;;5028066;28;20539;-65
2023/08/14 05:18:34;;;;;;;12.02;6.18;;;;;;;;;;5028086;28;20127;-67
2023/08/14 05:21:00;;;;;;;7.63;5.65;;;;;;;;;;5028015;28;20423;-66
2023/08/14 05:23:27;;;;;;;23.10;6.90;;;;;;;;;;5028371;28;20383;-66
2023/08/14 05:25:53;;;;;;;10.98;7.22;;;;;;;;;;5028407;28;20631;-66
2023/08/14 05:28:20;;;;;;;12.55;5.93;;;;;;;;;;5028234;28;20456;-70
2023/08/14 05:30:46;;;;;;;12.00;5.95;;;;;;;;;;5029190;28;20053;-66
2023/08/14 05:33:13;;;;;;;10.45;6.00;;;;;;;;;;5031859;28;20139;-66
2023/08/14 05:35:39;;;;;;;13.57;5.90;;;;;;;;;;5032234;28;20045;-66
2023/08/14 05:38:06;;;;;;;10.35;5.80;;;;;;;;;;5031923;28;20080;-67
2023/08/14 05:40:32;;;;;;;12.20;5.95;;;;;;;;;;5031564;28;20045;-66
2023/08/14 05:43:06;;;;;;;16.88;6.30;;;;;;;;;;5031386;28;20085;-66
2023/08/14 05:45:33;;;;;;;23.73;7.63;;;;;;;;;;5031664;28;20055;-66
2023/08/14 05:48:03;;;;;;;16.42;6.70;;;;;;;;;;5031292;28;20061;-66
2023/08/14 05:50:30;;;;;;;13.48;6.30;;;;;;;;;;5031836;28;20100;-68
2023/08/14 05:52:59;;;;;;;18.30;6.50;;;;;;;;;;5031365;28;20521;-66
2023/08/14 05:55:26;;;;;;;18.38;6.03;;;;;;;;;;5031694;28;20103;-66
2023/08/14 05:57:52;;;;;;;10.23;5.72;;;;;;;;;;5030927;28;20099;-67
2023/08/14 06:00:19;;;;;;;14.30;6.47;;;;;;;;;;5031529;28;20075;-66
2023/08/14 06:02:45;;;;;;;13.43;5.75;;;;;;;;;;5031293;28;20107;-68
2023/08/14 06:05:12;;;;;;;14.32;5.90;;;;;;;;;;5031082;28;20200;-66
2023/08/14 06:07:38;;;;;;;19.17;5.97;;;;;;;;;;5030770;28;20143;-67
2023/08/14 06:10:05;;;;;;;16.48;5.85;;;;;;;;;;5030988;28;20607;-67
2023/08/14 06:12:32;;;;;;;12.27;6.70;;;;;;;;;;5030971;28;20496;-68
2023/08/14 06:14:58;;;;;;;10.00;5.32;;;;;;;;;;5031355;28;20077;-66
2023/08/14 06:17:26;;;;;;;11.32;5.88;;;;;;;;;;5030708;28;20500;-67
2023/08/14 06:19:52;;;;;;;11.23;4.85;;;;;;;;;;5030591;28;20049;-67
2023/08/14 06:22:19;;;;;;;10.35;5.25;;;;;;;;;;5030412;28;20132;-67
2023/08/14 06:24:46;;;;;;;10.57;5.38;;;;;;;;;;5030464;28;20046;-67
2023/08/14 06:27:12;;;;;;;8.88;5.05;;;;;;;;;;5030528;28;20054;-65
2023/08/14 06:29:39;;;;;;;10.38;4.10;;;;;;;;;;5030933;28;20085;-68
2023/08/14 06:32:05;;;;;;;10.27;5.22;;;;;;;;;;5030474;28;20046;-66
2023/08/14 06:34:32;;;;;;;11.23;5.07;;;;;;;;;;5030925;28;20049;-66
2023/08/14 06:36:58;;;;;;;5.60;4.05;;;;;;;;;;5030826;28;20701;-65
2023/08/14 06:39:25;;;;;;;13.70;4.65;;;;;;;;;;5031059;28;20136;-68
2023/08/14 06:41:51;;;;;;;17.33;5.15;;;;;;;;;;5029674;28;20180;-68
2023/08/14 06:44:18;;;;;;;7.78;4.40;;;;;;;;;;5030343;28;20049;-66
2023/08/14 06:46:44;;;;;;;9.07;4.55;;;;;;;;;;5029772;28;20045;-66
2023/08/14 06:49:11;;;;;;;7.28;4.65;;;;;;;;;;5029830;28;20144;-66
2023/08/14 06:51:38;;;;;;;11.68;5.00;;;;;;;;;;5029802;28;20100;-67
2023/08/14 06:54:04;;;;;;;9.57;4.38;;;;;;;;;;5029882;28;20088;-66
2023/08/14 06:56:31;;;;;;;5.47;3.40;;;;;;;;;;5029903;28;20104;-67
2023/08/14 06:58:58;;;;;;;9.20;3.92;;;;;;;;;;5030207;28;20140;-67
2023/08/14 07:01:24;;;;;;;11.00;3.63;;;;;;;;;;5028899;28;20081;-66
2023/08/14 07:03:51;;;;;;;9.55;4.43;;;;;;;;;;5029456;28;20123;-66
2023/08/14 07:06:17;;;;;;;9.88;3.47;;;;;;;;;;5028143;28;20145;-67
2023/08/14 07:08:44;;;;;;;6.40;3.45;;;;;;;;;;5026233;28;20072;-67
2023/08/14 07:11:10;;;;;;;10.90;3.50;;;;;;;;;;5022725;28;20137;-66
2023/08/14 07:13:36;;;;;;;7.22;2.97;;;;;;;;;;5015951;28;20128;-65
2023/08/14 07:16:03;;;;;;;7.53;3.70;;;;;;;;;;5029729;28;20052;-66
2023/08/14 07:18:29;;;;;;;8.63;3.22;;;;;;;;;;5029511;28;20053;-67
2023/08/14 07:20:58;;;;;;;9.70;4.00;;;;;;;;;;5029391;28;20054;-67
2023/08/14 07:23:24;;;;;;;10.25;3.53;;;;;;;;;;5029315;28;20120;-67
2023/08/14 07:25:50;;;;;;;8.73;3.38;;;;;;;;;;5021490;28;20045;-69
2023/08/14 07:28:17;;;;;;;7.25;2.90;;;;;;;;;;5024774;28;20073;-67
2023/08/14 07:30:43;;;;;;;8.70;3.17;;;;;;;;;;5028065;28;20073;-66
2023/08/14 07:33:10;;;;;;;7.88;3.35;;;;;;;;;;5021259;28;20060;-67
2023/08/14 07:35:37;;;;;;;12.15;3.83;;;;;;;;;;5026975;28;20128;-66
2023/08/14 07:38:04;;;;;;;8.05;3.28;;;;;;;;;;5023918;28;20061;-68
2023/08/14 07:40:30;;;;;;;11.38;3.58;;;;;;;;;;5027705;28;20049;-67
2023/08/14 07:42:57;;;;;;;6.38;2.72;;;;;;;;;;5027244;28;20128;-66
2023/08/14 07:45:23;;;;;;;4.40;2.17;;;;;;;;;;5024294;28;20045;-66
2023/08/14 07:47:50;;;;;;;5.88;2.80;;;;;;;;;;5027437;28;20057;-67
2023/08/14 07:50:16;;;;;;;11.30;3.50;;;;;;;;;;5027330;28;20069;-67
2023/08/14 07:52:43;;;;;;;9.63;3.30;;;;;;;;;;5026444;28;20056;-66
2023/08/14 07:55:09;;;;;;;7.20;3.40;;;;;;;;;;5026194;28;20076;-67
2023/08/14 07:57:36;;;;;;;8.80;3.17;;;;;;;;;;5027524;28;20453;-67
2023/08/14 08:00:07;;;;;;;8.30;2.97;;;;;;;;;;5026918;28;20084;-67
2023/08/14 08:02:33;;;;;;;13.38;3.25;;;;;;;;;;5026644;28;20042;-70
2023/08/14 08:05:00;;;;;;;5.97;2.90;;;;;;;;;;5026452;28;20053;-74
2023/08/14 08:07:26;;;;;;;8.70;2.67;;;;;;;;;;5027729;28;20132;-76
2023/08/14 08:09:53;;;;;;;5.18;2.97;;;;;;;;;;5025953;28;20045;-76
2023/08/14 08:12:19;;;;;;;7.75;2.92;;;;;;;;;;5026208;28;20454;-74
2023/08/14 08:14:46;;;;;;;5.15;2.50;;;;;;;;;;5027355;28;20528;-72
2023/08/14 08:17:13;;;;;;;7.35;2.95;;;;;;;;;;5015522;28;20204;-70
2023/08/14 08:19:39;;;;;;;9.25;2.92;;;;;;;;;;5026984;28;20049;-70
2023/08/14 08:22:06;;;;;;;11.27;2.70;;;;;;;;;;5026514;28;20063;-70
2023/08/14 08:24:33;;;;;;;8.40;3.33;;;;;;;;;;5026247;28;20053;-69
2023/08/14 08:26:59;;;;;;;6.47;2.67;;;;;;;;;;5025853;28;20115;-70
2023/08/14 08:29:26;;;;;;;9.77;2.55;;;;;;;;;;5023007;28;20493;-69
2023/08/14 08:31:52;;;;;;;9.30;3.10;;;;;;;;;;5026880;28;20061;-68
2023/08/14 08:34:19;;;;;;;4.88;2.78;;;;;;;;;;5026248;28;20041;-72
2023/08/14 08:36:45;;;;;;;4.05;2.50;;;;;;;;;;5024002;28;20081;-71
2023/08/14 08:39:11;;;;;;;5.13;2.33;;;;;;;;;;5026723;28;20124;-69
2023/08/14 08:41:40;;;;;;;6.82;2.58;;;;;;;;;;5026841;28;20522;-69
2023/08/14 08:44:09;;;;;;;3.72;2.13;;;;;;;;;;5026228;28;20146;-70
2023/08/14 08:46:37;;;;;;;4.20;2.60;;;;;;;;;;5026686;28;20124;-69
2023/08/14 08:49:04;;;;;;;6.88;2.35;;;;;;;;;;5016570;28;20069;-70
2023/08/14 08:51:30;;;;;;;6.43;2.42;;;;;;;;;;5027228;28;20049;-68
2023/08/14 08:53:58;;;;;;;12.18;3.03;;;;;;;;;;5026615;28;20124;-69
2023/08/14 08:56:25;;;;;;;6.50;2.20;;;;;;;;;;5026647;28;20145;-76
2023/08/14 08:58:52;;;;;;;6.85;2.28;;;;;;;;;;5025148;28;20104;-77
2023/08/14 09:01:19;;;;;;;4.15;2.30;;;;;;;;;;5026729;28;20044;-78
2023/08/14 09:03:46;;;;;;;4.13;2.10;;;;;;;;;;5025143;28;20060;-76
2023/08/14 09:06:13;;;;;;;7.60;2.00;;;;;;;;;;5021719;28;20048;-76
2023/08/14 09:08:40;;;;;;;7.20;2.70;;;;;;;;;;5030080;28;20057;-75
2023/08/14 09:11:07;;;;;;;4.88;2.20;;;;;;;;;;5027348;28;20064;-72
2023/08/14 09:13:34;;;;;;;6.45;1.80;;;;;;;;;;5025773;28;20041;-76
2023/08/14 09:16:01;;;;;;;6.32;2.20;;;;;;;;;;5030074;28;20573;-74
2023/08/14 09:18:29;;;;;;;6.68;2.28;;;;;;;;;;5028161;28;20037;-73
2023/08/14 09:20:56;;;;;;;7.97;1.88;;;;;;;;;;5028572;28;20077;-74
2023/08/14 09:23:23;;;;;;;6.13;1.73;;;;;;;;;;5028486;28;20045;-75
2023/08/14 09:25:50;;;;;;;4.07;1.58;;;;;;;;;;5028736;28;20151;-76
2023/08/14 09:28:17;;;;;;;4.13;1.63;;;;;;;;;;5020361;28;20065;-73
2023/08/14 09:30:44;;;;;;;4.68;2.15;;;;;;;;;;5027494;28;20053;-72
2023/08/14 09:33:12;;;;;;;4.95;1.85;;;;;;;;;;5019550;28;20049;-74
2023/08/14 09:35:38;;;;;;;6.82;2.40;;;;;;;;;;5028169;28;20081;-72
2023/08/14 09:38:05;;;;;;;4.80;2.03;;;;;;;;;;5028736;28;20486;-72
2023/08/14 09:40:32;;;;;;;4.93;1.77;;;;;;;;;;5029084;28;20157;-72
2023/08/14 09:42:59;;;;;;;3.78;1.83;;;;;;;;;;5027740;28;20068;-74
2023/08/14 09:45:28;;;;;;;4.90;3.13;;;;;;;;;;5028257;28;20053;-74
2023/08/14 09:48:00;;;;;;;6.85;2.53;;;;;;;;;;5026704;28;20053;-70
2023/08/14 09:50:27;;;;;;;6.00;1.90;;;;;;;;;;5022436;28;20045;-68
2023/08/14 09:52:58;;;;;;;5.28;1.80;;;;;;;;;;5028777;28;20053;-70
2023/08/14 09:55:27;;;;;;;4.10;1.92;;;;;;;;;;5028582;28;20041;-71
2023/08/14 09:57:54;;;;;;;3.70;1.40;;;;;;;;;;5028162;28;20041;-69
2023/08/14 10:00:21;;;;;;;3.65;1.13;;;;;;;;;;5029499;28;20128;-73
2023/08/14 10:02:47;;;;;;;3.13;1.38;;;;;;;;;;5058548;28;20659;-68
2023/08/14 10:05:15;;;;;;;3.67;1.33;;;;;;;;;;5026321;28;20041;-70
2023/08/14 10:07:42;;;;;;;2.95;1.33;;;;;;;;;;5027181;28;20075;-69
2023/08/14 10:10:11;;;;;;;4.65;1.50;;;;;;;;;;5028266;28;20045;-70
2023/08/14 10:12:39;;;;;;;4.18;1.95;;;;;;;;;;5034396;28;20041;-70
2023/08/14 10:15:10;;;;;;;4.63;2.38;;;;;;;;;;5027277;28;20132;-69
2023/08/14 10:17:55;;;;;;;5.10;2.08;;;;;;;;;;5026827;28;20050;-68
2023/08/14 10:20:23;;;;;;;5.10;2.08;;;;;;;;;;5026254;28;20050;-69
2023/08/14 10:22:52;;;;;;;5.13;1.50;;;;;;;;;;5022295;28;20133;-67
2023/08/14 10:25:19;;;;;;;3.58;1.75;;;;;;;;;;5016290;28;20133;-66
2023/08/14 10:27:46;;;;;;;2.88;1.50;;;;;;;;;;5027937;28;20095;-66
2023/08/14 10:30:13;;;;;;;4.65;1.88;;;;;;;;;;5028123;28;20658;-71
2023/08/14 10:32:40;;;;;;;5.35;1.58;;;;;;;;;;5025882;28;20091;-65
2023/08/14 10:35:07;;;;;;;13.40;3.70;;;;;;;;;;5027738;28;20042;-65
2023/08/14 10:37:44;;;;;;;3.60;1.88;;;;;;;;;;5025627;28;20115;-64
2023/08/14 10:40:22;;;;;;;6.50;2.05;;;;;;;;;;5026188;28;20095;-66
2023/08/14 10:42:56;;;;;;;4.20;2.30;;;;;;;;;;5025843;28;20045;-66
2023/08/14 10:45:24;;;;;;;3.65;1.42;;;;;;;;;;5028303;28;20160;-66
2023/08/14 10:47:51;;;;;;;5.88;1.70;;;;;;;;;;5028670;28;21330;-66
2023/08/14 10:50:17;;;;;;;6.13;1.80;;;;;;;;;;5029195;28;20049;-66
2023/08/14 10:52:44;;;;;;;4.53;2.05;;;;;;;;;;5027996;28;20620;-67
2023/08/14 10:55:16;;;;;;;5.57;1.88;;;;;;;;;;5028924;28;20438;-67
2023/08/14 10:57:44;;;;;;;4.82;2.20;;;;;;;;;;5028547;28;20128;-67
2023/08/14 11:00:21;;;;;;;4.53;1.40;;;;;;;;;;5027807;28;20569;-67
2023/08/14 11:03:04;;;;;;;2.85;1.50;;;;;;;;;;5028329;28;20053;-65
2023/08/14 11:05:35;;;;;;;2.15;1.23;;;;;;;;;;5029058;28;20171;-67
2023/08/14 11:08:02;;;;;;;6.00;1.50;;;;;;;;;;5028565;28;20504;-69
2023/08/14 11:10:28;;;;;;;3.40;1.45;;;;;;;;;;5028720;28;20166;-67
2023/08/14 11:12:55;;;;;;;2.90;1.20;;;;;;;;;;5028173;28;20123;-66
2023/08/14 11:15:22;;;;;;;3.05;1.20;;;;;;;;;;5028675;28;20513;-67
2023/08/14 11:17:49;;;;;;;5.57;1.60;;;;;;;;;;5028328;28;20037;-67
2023/08/14 11:20:15;;;;;;;4.88;1.40;;;;;;;;;;5028928;28;20462;-65
2023/08/14 11:22:45;;;;;;;2.53;1.20;;;;;;;;;;5028165;28;20045;-69
2023/08/14 11:25:12;;;;;;;;;;;;;;;;;;5029045;28;20534;-66
2023/08/14 11:27:39;;;;;;;4.13;1.70;;;;;;;;;;5026500;28;20015;-69
2023/08/14 11:30:06;;;;;;;3.90;1.40;;;;;;;;;;5029259;28;20088;-69
2023/08/14 11:32:40;;;;;;;5.75;1.30;;;;;;;;;;5026442;28;20060;-67
2023/08/14 11:35:08;;;;;;;3.25;1.40;;;;;;;;;;5028609;28;20045;-70
2023/08/14 11:37:34;;;;;;;2.95;1.13;;;;;;;;;;5028051;28;20525;-67
2023/08/14 11:40:09;;;;;;;4.40;1.05;;;;;;;;;;5028036;28;20491;-69
2023/08/14 11:42:36;;;;;;;3.00;1.15;;;;;;;;;;5027632;28;20049;-67
2023/08/14 11:45:05;;;;;;;2.63;1.40;;;;;;;;;;5027715;28;20037;-66
2023/08/14 11:47:36;;;;;;;5.95;2.10;;;;;;;;;;5027442;28;20140;-66
2023/08/14 11:50:03;;;;;;;4.18;1.58;;;;;;;;;;5027878;28;20076;-66
2023/08/14 11:52:30;;;;;;;6.43;1.65;;;;;;;;;;5028334;28;20053;-67
2023/08/14 11:54:57;;;;;;;3.28;1.38;;;;;;;;;;5027578;28;20050;-65
2023/08/14 11:57:24;;;;;;;7.65;1.50;;;;;;;;;;5027894;28;20092;-66
2023/08/14 11:59:51;;;;;;;6.57;1.50;;;;;;;;;;5027297;28;20124;-68
2023/08/14 12:02:18;;;;;;;3.00;1.23;;;;;;;;;;5026107;28;20059;-67
2023/08/14 12:04:46;;;;;;;3.95;2.15;;;;;;;;;;5027526;28;20137;-65
2023/08/14 12:07:17;;;;;;;2.25;0.85;;;;;;;;;;5028116;28;20107;-64
2023/08/14 12:09:43;;;;;;;4.72;1.33;;;;;;;;;;5027976;28;20204;-62
2023/08/14 12:12:10;;;;;;;4.32;1.50;;;;;;;;;;5028162;28;20159;-63
2023/08/14 12:14:41;;;;;;;10.15;1.40;;;;;;;;;;5028487;28;20076;-63
2023/08/14 12:17:10;;;;;;;3.28;1.40;;;;;;;;;;5028050;28;20087;-62
2023/08/14 12:19:47;;;;;;;2.67;1.10;;;;;;;;;;5028044;28;20053;-63
2023/08/14 12:22:13;;;;;;;3.00;1.17;;;;;;;;;;5028119;28;20100;-63
2023/08/14 12:24:40;;;;;;;3.55;1.30;;;;;;;;;;5027728;28;20565;-63
2023/08/14 12:27:14;;;;;;;3.08;1.40;;;;;;;;;;5027238;28;20679;-63
2023/08/14 12:29:41;;;;;;;2.83;1.30;;;;;;;;;;5027529;28;20050;-69
2023/08/14 12:32:08;;;;;;;3.92;1.08;;;;;;;;;;5027281;28;20433;-68
2023/08/14 12:34:34;;;;;;;3.25;1.42;;;;;;;;;;5027814;28;20049;-64
2023/08/14 12:37:02;;;;;;;4.03;1.05;;;;;;;;;;5027835;28;20140;-66
2023/08/14 12:39:29;;;;;;;5.55;1.23;;;;;;;;;;5027379;28;20045;-64
2023/08/14 12:41:55;;;;;;;7.13;1.40;;;;;;;;;;5027386;28;20053;-65
2023/08/14 12:44:22;;;;;;;5.85;1.02;;;;;;;;;;5024073;28;20134;-65
2023/08/14 12:46:49;;;;;;;3.15;1.48;;;;;;;;;;5027272;28;20054;-66
2023/08/14 12:49:16;;;;;;;6.50;2.50;;;;;;;;;;5026790;28;20100;-65
2023/08/14 12:51:42;;;;;;;5.82;1.80;;;;;;;;;;5026631;28;20041;-65
2023/08/14 12:54:10;;;;;;;4.97;1.55;;;;;;;;;;5025628;28;20218;-66
2023/08/14 12:56:36;;;;;;;6.53;1.60;;;;;;;;;;5016969;28;20080;-64
2023/08/14 12:59:03;;;;;;;12.52;2.13;;;;;;;;;;5023886;28;20488;-65
2023/08/14 13:01:30;;;;;;;6.57;2.65;;;;;;;;;;5018443;28;20137;-66
2023/08/14 13:03:56;;;;;;;7.40;2.42;;;;;;;;;;5026333;28;20049;-65
2023/08/14 13:06:28;;;;;;;5.00;1.30;;;;;;;;;;5023180;28;20053;-66
2023/08/14 13:08:55;;;;;;;;;;;;;;;;;;5026566;28;20054;-63
2023/08/14 13:11:21;;;;;;;7.07;1.80;;;;;;;;;;5024050;28;20008;-65
2023/08/14 13:13:51;;;;;;;4.85;1.55;;;;;;;;;;5018786;28;20050;-66
2023/08/14 13:16:18;;;;;;;3.50;1.83;;;;;;;;;;5022357;28;20049;-67
2023/08/14 13:18:45;;;;;;;8.02;2.90;;;;;;;;;;5026338;28;20133;-64
2023/08/14 13:21:11;;;;;;;6.13;1.63;;;;;;;;;;5025257;28;20136;-64
2023/08/14 13:23:38;;;;;;;6.75;1.48;;;;;;;;;;5026075;28;20731;-66
2023/08/14 13:26:04;;;;;;;3.85;1.85;;;;;;;;;;5025768;28;20076;-65
2023/08/14 13:28:36;;;;;;;6.22;1.42;;;;;;;;;;5025712;28;20068;-66
2023/08/14 13:31:04;;;;;;;7.18;2.78;;;;;;;;;;5025696;28;20182;-66
2023/08/14 13:33:30;;;;;;;10.18;3.10;;;;;;;;;;5025908;28;20099;-65
2023/08/14 13:35:57;;;;;;;28.10;6.95;;;;;;;;;;5025709;28;20081;-65
2023/08/14 13:38:23;;;;;;;4.00;2.03;;;;;;;;;;5025705;28;20041;-64
2023/08/14 13:40:50;;;;;;;9.05;1.73;;;;;;;;;;5025961;28;20049;-65
2023/08/14 13:43:16;;;;;;;24.95;5.82;;;;;;;;;;5026055;28;20045;-68
2023/08/14 13:45:43;;;;;;;6.22;1.73;;;;;;;;;;5024697;28;20041;-64
2023/08/14 13:48:09;;;;;;;5.63;2.05;;;;;;;;;;5024855;28;20053;-65
2023/08/14 13:50:37;;;;;;;6.70;2.10;;;;;;;;;;5011963;28;20505;-65
2023/08/14 13:53:04;;;;;;;14.45;1.77;;;;;;;;;;5027458;28;20460;-64
2023/08/14 13:55:31;;;;;;;9.23;1.80;;;;;;;;;;5029129;28;20464;-65
2023/08/14 13:57:58;;;;;;;6.72;2.15;;;;;;;;;;5028371;28;20155;-64
2023/08/14 14:00:25;;;;;;;5.15;2.40;;;;;;;;;;5029094;28;20553;-63
2023/08/14 14:02:55;;;;;;;5.32;2.80;;;;;;;;;;5029300;28;20132;-65
2023/08/14 14:05:22;;;;;;;12.20;3.20;;;;;;;;;;5023913;28;20090;-64
2023/08/14 14:07:49;;;;;;;19.55;4.97;;;;;;;;;;5029676;28;20041;-63
2023/08/14 14:10:21;;;;;;;15.25;4.15;;;;;;;;;;5029392;28;20413;-65
2023/08/14 14:12:47;;;;;;;11.48;2.80;;;;;;;;;;5029415;28;20133;-63
2023/08/14 14:15:27;;;;;;;2.95;1.70;;;;;;;;;;5020218;28;20052;-65
2023/08/14 14:17:54;;;;;;;2.58;1.67;;;;;;;;;;5029276;28;20080;-65
2023/08/14 14:20:22;;;;;;;9.70;2.47;;;;;;;;;;5029163;28;20041;-65
2023/08/14 14:22:49;;;;;;;6.40;1.85;;;;;;;;;;5028460;28;20641;-65
2023/08/14 14:25:15;;;;;;;10.57;2.08;;;;;;;;;;5028052;28;20478;-65
2023/08/14 14:27:42;;;;;;;2.97;1.92;;;;;;;;;;5029390;28;20045;-65
2023/08/14 14:30:08;;;;;;;3.55;1.65;;;;;;;;;;5028734;28;20063;-65
2023/08/14 14:32:35;;;;;;;5.50;2.13;;;;;;;;;;5028561;28;20107;-65
2023/08/14 14:35:02;;;;;;;4.93;2.17;;;;;;;;;;5027980;28;20080;-65
2023/08/14 14:37:29;;;;;;;7.18;1.95;;;;;;;;;;5028329;28;20497;-65
2023/08/14 14:39:56;;;;;;;5.85;2.13;;;;;;;;;;5028707;28;20073;-64
2023/08/14 14:42:25;;;;;;;4.53;2.17;;;;;;;;;;5026446;28;20394;-68